createdAt,value
2022-08-27T00:01:02.120Z,6.13
2022-08-27T00:04:04.365Z,6.07
2022-08-27T00:07:07.244Z,7.10
2022-08-27T00:10:12.826Z,6.10
2022-08-27T00:13:16.113Z,6.32
2022-08-27T00:16:18.290Z,6.20
2022-08-27T00:19:21.389Z,6.32
2022-08-27T00:22:23.543Z,6.53
2022-08-27T00:25:25.669Z,6.07
2022-08-27T00:28:29.111Z,6.25
2022-08-27T00:31:31.191Z,6.43
2022-08-27T00:34:33.245Z,6.40
2022-08-27T00:37:35.980Z,7.15
2022-08-27T00:40:38.086Z,6.05
2022-08-27T00:43:45.275Z,6.32
2022-08-27T00:47:04.367Z,5.88
2022-08-27T00:50:11.203Z,6.18
2022-08-27T00:53:17.104Z,7.22
2022-08-27T00:56:23.282Z,5.85
2022-08-27T00:59:29.428Z,6.32
2022-08-27T01:02:31.959Z,6.95
2022-08-27T01:05:36.502Z,6.15
2022-08-27T01:08:42.451Z,6.22
2022-08-27T01:11:47.940Z,6.40
2022-08-27T01:14:49.986Z,7.15
2022-08-27T01:17:52.689Z,6.18
2022-08-27T01:21:10.004Z,6.30
2022-08-27T01:24:39.830Z,6.47
2022-08-27T01:27:43.653Z,5.95
2022-08-27T01:30:45.718Z,6.25
2022-08-27T01:33:56.226Z,5.75
2022-08-27T01:36:58.746Z,6.38
2022-08-27T01:40:02.080Z,7.25
2022-08-27T01:43:05.001Z,5.72
2022-08-27T01:46:07.068Z,6.10
2022-08-27T01:49:10.589Z,6.30
2022-08-27T01:52:14.327Z,6.00
2022-08-27T01:55:18.871Z,6.93
2022-08-27T01:58:25.317Z,6.40
2022-08-27T02:01:27.372Z,6.13
2022-08-27T02:04:30.290Z,5.90
2022-08-27T02:07:32.301Z,5.40
2022-08-27T02:10:37.192Z,5.40
2022-08-27T02:13:40.402Z,5.95
2022-08-27T02:19:54.847Z,5.55
2022-08-27T02:22:57.258Z,5.50
2022-08-27T02:25:59.295Z,5.72
2022-08-27T02:29:01.328Z,5.45
2022-08-27T02:32:03.728Z,6.78
2022-08-27T02:35:06.971Z,5.53
2022-08-27T02:41:11.418Z,5.07
2022-08-27T02:44:13.899Z,5.65
2022-08-27T02:47:16.874Z,5.93
2022-08-27T02:50:18.935Z,5.88
2022-08-27T02:53:21.486Z,5.90
2022-08-27T02:56:26.321Z,5.65
2022-08-27T02:59:28.341Z,6.23
2022-08-27T03:02:30.357Z,6.38
2022-08-27T03:05:32.462Z,5.47
2022-08-27T03:08:38.007Z,5.63
2022-08-27T03:11:55.284Z,5.53
2022-08-27T03:14:57.251Z,6.00
2022-08-27T03:18:17.569Z,5.45
2022-08-27T03:21:26.407Z,5.82
2022-08-27T03:24:28.334Z,5.47
2022-08-27T03:30:33.367Z,4.80
2022-08-27T03:33:38.741Z,6.43
2022-08-27T03:36:40.700Z,5.65
2022-08-27T03:39:42.661Z,6.40
2022-08-27T03:42:44.861Z,5.30
2022-08-27T03:45:56.636Z,5.25
2022-08-27T03:49:04.833Z,5.82
2022-08-27T03:52:08.332Z,5.80
2022-08-27T03:55:10.805Z,5.68
2022-08-27T03:58:14.668Z,5.60
2022-08-27T04:01:17.528Z,6.28
2022-08-27T04:04:20.076Z,6.03
2022-08-27T04:07:21.995Z,5.82
2022-08-27T04:10:24.274Z,6.93
2022-08-27T04:13:26.935Z,7.00
2022-08-27T04:16:28.997Z,6.03
2022-08-27T04:19:33.228Z,6.35
2022-08-27T04:22:35.760Z,7.43
2022-08-27T04:25:41.631Z,5.63
2022-08-27T04:28:48.547Z,5.72
2022-08-27T04:31:51.481Z,6.28
2022-08-27T04:34:58.372Z,6.43
2022-08-27T04:38:00.838Z,5.95
2022-08-27T04:41:20.034Z,6.22
2022-08-27T04:44:22.740Z,6.32
2022-08-27T04:47:24.710Z,5.90
2022-08-27T04:50:26.622Z,6.43
2022-08-27T04:53:28.863Z,6.28
2022-08-27T04:56:31.178Z,6.10
2022-08-27T04:59:34.967Z,6.10
2022-08-27T05:02:36.896Z,6.38
2022-08-27T05:05:38.969Z,6.82
2022-08-27T05:08:45.208Z,6.50
2022-08-27T05:11:47.732Z,7.00
2022-08-27T05:14:49.629Z,6.00
2022-08-27T05:17:51.687Z,6.78
2022-08-27T05:20:54.081Z,8.40
2022-08-27T05:23:58.910Z,6.18
2022-08-27T05:27:00.805Z,6.43
2022-08-27T05:30:03.898Z,6.78
2022-08-27T05:33:06.047Z,5.78
2022-08-27T05:36:14.678Z,8.23
2022-08-27T05:39:17.465Z,8.38
2022-08-27T05:42:19.845Z,7.25
2022-08-27T05:45:24.233Z,7.47
2022-08-27T05:48:26.425Z,7.45
2022-08-27T05:51:36.013Z,6.47
2022-08-27T05:54:39.069Z,7.75
2022-08-27T06:01:04.172Z,7.03
2022-08-27T06:04:09.361Z,6.63
2022-08-27T06:07:11.642Z,6.65
2022-08-27T06:10:13.856Z,6.77
2022-08-27T06:13:15.850Z,6.83
2022-08-27T06:16:19.690Z,7.65
2022-08-27T06:19:22.456Z,8.25
2022-08-27T06:22:24.798Z,6.88
2022-08-27T06:25:26.928Z,8.50
2022-08-27T06:28:32.375Z,7.43
2022-08-27T06:31:37.771Z,7.68
2022-08-27T06:34:42.421Z,7.25
2022-08-27T06:37:44.552Z,7.30
2022-08-27T06:40:46.485Z,7.03
2022-08-27T06:43:48.501Z,8.10
2022-08-27T06:46:51.823Z,7.57
2022-08-27T06:49:53.779Z,6.60
2022-08-27T06:52:55.785Z,8.68
2022-08-27T06:55:57.775Z,9.07
2022-08-27T06:59:11.619Z,9.20
2022-08-27T07:02:15.004Z,8.13
2022-08-27T07:05:17.579Z,8.80
2022-08-27T07:08:19.549Z,8.02
2022-08-27T07:11:22.054Z,7.25
2022-08-27T07:14:24.137Z,7.70
2022-08-27T07:17:26.060Z,12.23
2022-08-27T07:20:28.646Z,6.82
2022-08-27T07:23:32.846Z,9.88
2022-08-27T07:26:37.218Z,10.60
2022-08-27T07:29:39.638Z,12.93
2022-08-27T07:32:45.970Z,8.73
2022-08-27T07:35:49.538Z,10.05
2022-08-27T07:39:00.682Z,10.52
2022-08-27T07:42:22.135Z,8.98
2022-08-27T07:45:24.145Z,8.82
2022-08-27T07:48:26.547Z,9.30
2022-08-27T07:51:31.742Z,9.23
2022-08-27T07:54:34.387Z,10.25
2022-08-27T07:57:36.407Z,8.77
2022-08-27T08:00:40.739Z,8.47
2022-08-27T08:03:42.840Z,7.43
2022-08-27T08:06:44.823Z,8.37
2022-08-27T08:09:46.927Z,7.80
2022-08-27T08:12:50.014Z,8.23
2022-08-27T08:15:52.328Z,8.45
2022-08-27T08:18:55.906Z,7.40
2022-08-27T08:22:00.352Z,10.15
2022-08-27T08:25:03.074Z,9.15
2022-08-27T08:28:05.071Z,8.98
2022-08-27T08:31:07.904Z,8.13
2022-08-27T08:37:16.152Z,9.10
2022-08-27T08:40:40.909Z,9.13
2022-08-27T08:43:51.617Z,9.27
2022-08-27T08:47:02.021Z,8.45
2022-08-27T08:50:28.853Z,8.27
2022-08-27T08:53:55.535Z,9.43
2022-08-27T08:57:06.053Z,8.95
2022-08-27T09:00:14.270Z,9.48
2022-08-27T09:03:17.076Z,8.95
2022-08-27T09:06:41.098Z,8.57
2022-08-27T09:10:26.364Z,9.57
2022-08-27T09:13:38.027Z,7.93
2022-08-27T09:16:40.023Z,9.38
2022-08-27T09:19:43.096Z,8.90
2022-08-27T09:23:07.884Z,9.57
2022-08-27T09:26:21.940Z,11.57
2022-08-27T09:29:29.743Z,10.68
2022-08-27T09:32:34.110Z,8.82
2022-08-27T09:35:47.473Z,7.40
2022-08-27T09:38:58.360Z,8.77
2022-08-27T09:42:02.242Z,8.57
2022-08-27T09:45:10.062Z,8.90
2022-08-27T09:48:21.464Z,7.97
2022-08-27T09:51:27.468Z,9.00
2022-08-27T09:54:44.667Z,10.45
2022-08-27T09:57:47.072Z,9.88
2022-08-27T10:00:58.088Z,11.23
2022-08-27T10:04:12.808Z,10.00
2022-08-27T10:07:52.617Z,8.43
2022-08-27T10:11:10.459Z,7.75
2022-08-27T10:14:21.037Z,8.55
2022-08-27T10:17:44.414Z,9.30
2022-08-27T10:21:09.165Z,9.60
2022-08-27T10:24:35.830Z,8.90
2022-08-27T10:27:53.950Z,8.60
2022-08-27T10:31:09.885Z,9.55
2022-08-27T10:34:43.420Z,9.65
2022-08-27T10:38:09.794Z,8.73
2022-08-27T10:41:54.475Z,8.73
2022-08-27T10:44:59.175Z,8.98
2022-08-27T10:48:12.262Z,10.50
2022-08-27T10:51:23.731Z,7.88
2022-08-27T10:54:42.994Z,9.80
2022-08-27T10:58:11.765Z,9.32
2022-08-27T11:01:43.435Z,8.05
2022-08-27T11:04:57.695Z,8.85
2022-08-27T11:08:23.671Z,8.35
2022-08-27T11:15:12.995Z,8.48
2022-08-27T11:18:42.829Z,7.30
2022-08-27T11:21:51.756Z,7.05
2022-08-27T11:25:17.999Z,8.32
2022-08-27T11:28:29.993Z,7.57
2022-08-27T11:32:02.652Z,7.82
2022-08-27T11:35:17.913Z,7.65
2022-08-27T11:38:49.520Z,6.00
2022-08-27T11:41:54.326Z,8.05
2022-08-27T11:45:07.011Z,8.82
2022-08-27T11:48:30.414Z,7.20
2022-08-27T11:51:37.522Z,7.15
2022-08-27T11:54:59.098Z,7.82
2022-08-27T11:58:06.634Z,7.43
2022-08-27T12:01:27.004Z,8.15
2022-08-27T12:04:32.026Z,7.28
2022-08-27T12:07:39.809Z,8.25
2022-08-27T12:11:09.814Z,6.03
2022-08-27T12:14:37.396Z,7.78
2022-08-27T12:18:28.438Z,7.32
2022-08-27T12:21:56.208Z,7.13
2022-08-27T12:24:59.450Z,6.90
2022-08-27T12:28:07.671Z,7.57
2022-08-27T12:31:10.109Z,6.00
2022-08-27T12:34:16.751Z,5.97
2022-08-27T12:37:28.184Z,5.72
2022-08-27T12:40:47.211Z,6.32
2022-08-27T12:43:49.187Z,6.50
2022-08-27T12:47:04.475Z,5.47
2022-08-27T12:50:07.604Z,5.93
2022-08-27T12:53:23.394Z,5.57
2022-08-27T12:56:25.513Z,6.25
2022-08-27T12:59:33.233Z,7.20
2022-08-27T13:02:53.897Z,7.15
2022-08-27T13:05:57.682Z,5.80
2022-08-27T13:09:03.131Z,7.05
2022-08-27T13:12:14.773Z,5.55
2022-08-27T13:15:19.601Z,8.10
2022-08-27T13:18:23.025Z,7.00
2022-08-27T13:21:30.298Z,7.53
2022-08-27T13:24:36.423Z,6.13
2022-08-27T13:27:38.436Z,5.93
2022-08-27T13:30:44.026Z,5.20
2022-08-27T13:33:47.048Z,5.10
2022-08-27T13:37:00.025Z,4.95
2022-08-27T13:43:12.414Z,5.88
2022-08-27T13:46:30.913Z,5.18
2022-08-27T13:49:40.025Z,4.15
2022-08-27T13:53:01.678Z,4.82
2022-08-27T13:56:03.728Z,5.43
2022-08-27T13:59:14.062Z,5.10
2022-08-27T14:02:29.236Z,5.70
2022-08-27T14:05:34.090Z,5.72
2022-08-27T14:08:36.404Z,7.35
2022-08-27T14:11:39.048Z,5.60
2022-08-27T14:14:42.318Z,5.28
2022-08-27T14:17:46.488Z,5.70
2022-08-27T14:20:48.438Z,6.18
2022-08-27T14:23:50.553Z,8.53
2022-08-27T14:26:54.712Z,8.13
2022-08-27T14:29:56.889Z,8.70
2022-08-27T14:33:00.609Z,8.52
2022-08-27T14:36:03.317Z,13.13
2022-08-27T14:39:06.998Z,10.82
2022-08-27T14:42:09.668Z,8.77
2022-08-27T14:45:11.708Z,8.20
2022-08-27T14:48:19.212Z,9.37
2022-08-27T14:51:30.982Z,7.85
2022-08-27T14:54:33.761Z,8.43
2022-08-27T14:57:36.347Z,8.20
2022-08-27T15:00:38.439Z,8.00
2022-08-27T15:03:46.534Z,9.23
2022-08-27T15:06:48.478Z,9.77
2022-08-27T15:09:50.435Z,10.32
2022-08-27T15:12:54.566Z,9.98
2022-08-27T15:15:56.519Z,7.95
2022-08-27T15:19:01.039Z,9.07
2022-08-27T15:22:25.182Z,9.25
2022-08-27T15:25:27.430Z,9.10
2022-08-27T15:28:29.481Z,8.87
2022-08-27T15:31:31.516Z,7.50
2022-08-27T15:34:33.554Z,6.27
2022-08-27T15:37:36.041Z,6.38
2022-08-27T15:40:38.189Z,5.93
2022-08-27T15:43:40.478Z,6.23
2022-08-27T15:46:42.495Z,9.60
2022-08-27T15:49:44.774Z,8.68
2022-08-27T15:52:56.453Z,7.43
2022-08-27T15:55:58.537Z,8.05
2022-08-27T15:59:00.425Z,9.30
2022-08-27T16:02:03.092Z,8.48
2022-08-27T16:05:06.206Z,9.45
2022-08-27T16:11:10.133Z,8.93
2022-08-27T16:14:13.586Z,9.25
2022-08-27T16:17:15.507Z,9.10
2022-08-27T16:20:17.659Z,8.20
2022-08-27T16:23:20.490Z,8.73
2022-08-27T16:26:23.444Z,7.88
2022-08-27T16:29:25.341Z,6.30
2022-08-27T16:32:28.995Z,4.88
2022-08-27T16:35:32.267Z,5.45
2022-08-27T16:38:34.309Z,4.97
2022-08-27T16:41:36.245Z,5.22
2022-08-27T16:44:40.075Z,5.18
2022-08-27T16:48:00.887Z,6.25
2022-08-27T16:51:05.060Z,5.38
2022-08-27T16:54:07.549Z,6.15
2022-08-27T16:57:09.470Z,5.45
2022-08-27T17:00:11.591Z,5.57
2022-08-27T17:03:13.908Z,6.53
2022-08-27T17:06:16.647Z,6.27
2022-08-27T17:09:20.156Z,6.07
2022-08-27T17:12:22.941Z,6.47
2022-08-27T17:15:25.033Z,5.45
2022-08-27T17:18:27.848Z,6.57
2022-08-27T17:21:30.602Z,5.60
2022-08-27T17:24:32.965Z,6.85
2022-08-27T17:27:34.989Z,4.73
2022-08-27T17:30:37.131Z,5.28
2022-08-27T17:33:44.575Z,5.40
2022-08-27T17:36:46.575Z,5.88
2022-08-27T17:39:48.883Z,6.55
2022-08-27T17:42:50.972Z,6.17
2022-08-27T17:45:52.982Z,5.88
2022-08-27T17:48:55.256Z,6.10
2022-08-27T17:52:00.795Z,5.50
2022-08-27T17:55:03.719Z,6.75
2022-08-27T17:58:07.456Z,6.70
2022-08-27T18:01:11.399Z,6.68
2022-08-27T18:04:13.712Z,6.43
2022-08-27T18:07:16.718Z,7.43
2022-08-27T18:10:23.811Z,9.23
2022-08-27T18:13:25.885Z,9.80
2022-08-27T18:16:28.296Z,10.60
2022-08-27T18:19:30.301Z,9.48
2022-08-27T18:22:35.033Z,12.02
2022-08-27T18:25:41.742Z,12.35
2022-08-27T18:28:44.833Z,8.90
2022-08-27T18:31:47.061Z,8.20
2022-08-27T18:34:49.250Z,6.70
2022-08-27T18:37:51.343Z,6.63
2022-08-27T18:40:55.723Z,6.47
2022-08-27T18:43:58.645Z,5.85
2022-08-27T18:47:00.767Z,6.30
2022-08-27T18:50:02.682Z,6.25
2022-08-27T18:53:04.656Z,6.55
2022-08-27T18:56:08.588Z,5.45
2022-08-27T18:59:11.284Z,5.85
2022-08-27T19:02:19.946Z,5.65
2022-08-27T19:05:26.814Z,5.53
2022-08-27T19:08:30.007Z,5.13
2022-08-27T19:11:31.974Z,6.05
2022-08-27T19:14:33.904Z,5.57
2022-08-27T19:17:36.610Z,5.93
2022-08-27T19:20:38.652Z,5.90
2022-08-27T19:23:40.715Z,6.95
2022-08-27T19:26:42.929Z,6.72
2022-08-27T19:29:44.930Z,6.13
2022-08-27T19:32:46.983Z,6.85
2022-08-27T19:35:49.573Z,7.13
2022-08-27T19:38:52.885Z,6.50
2022-08-27T19:41:55.233Z,6.55
2022-08-27T19:44:57.149Z,7.20
2022-08-27T19:48:00.003Z,7.55
2022-08-27T19:51:03.203Z,6.10
2022-08-27T19:57:07.541Z,5.82
2022-08-27T20:00:11.565Z,6.18
2022-08-27T20:03:13.561Z,5.65
2022-08-27T20:06:16.234Z,6.03
2022-08-27T20:09:21.358Z,7.78
2022-08-27T20:12:23.362Z,7.55
2022-08-27T20:15:26.061Z,7.07
2022-08-27T20:18:28.434Z,6.45
2022-08-27T20:21:30.509Z,7.15
2022-08-27T20:24:32.716Z,6.63
2022-08-27T20:27:35.524Z,7.03
2022-08-27T20:30:40.113Z,7.35
2022-08-27T20:33:45.167Z,6.30
2022-08-27T20:36:47.150Z,6.35
2022-08-27T20:39:54.827Z,6.32
2022-08-27T20:42:57.769Z,6.50
2022-08-27T20:46:04.229Z,6.00
2022-08-27T20:49:08.031Z,5.78
2022-08-27T20:55:18.066Z,6.03
2022-08-27T20:58:38.679Z,6.25
2022-08-27T21:01:40.692Z,5.18
2022-08-27T21:04:47.684Z,5.53
2022-08-27T21:07:51.116Z,4.70
2022-08-27T21:10:56.898Z,4.80
2022-08-27T21:13:58.882Z,4.90
2022-08-27T21:17:00.931Z,5.50
2022-08-27T21:20:06.193Z,6.80
2022-08-27T21:23:08.892Z,5.90
2022-08-27T21:26:12.706Z,5.53
2022-08-27T21:29:15.570Z,6.22
2022-08-27T21:32:18.238Z,5.53
2022-08-27T21:35:20.229Z,5.82
2022-08-27T21:38:22.283Z,6.40
2022-08-27T21:41:24.870Z,6.63
2022-08-27T21:44:27.310Z,6.53
2022-08-27T21:47:30.218Z,7.00
2022-08-27T21:50:32.203Z,6.22
2022-08-27T21:53:34.119Z,6.30
2022-08-27T21:56:36.117Z,7.15
2022-08-27T21:59:44.873Z,6.65
2022-08-27T22:02:46.860Z,6.60
2022-08-27T22:05:50.037Z,7.00
2022-08-27T22:08:52.188Z,6.93
2022-08-27T22:11:54.830Z,7.25
2022-08-27T22:14:56.896Z,8.07
2022-08-27T22:17:59.371Z,7.95
2022-08-27T22:21:01.343Z,7.57
2022-08-27T22:24:03.524Z,7.63
2022-08-27T22:27:06.587Z,7.35
2022-08-27T22:30:11.300Z,7.28
2022-08-27T22:33:13.962Z,7.65
2022-08-27T22:36:17.085Z,7.50
2022-08-27T22:39:20.215Z,7.43
2022-08-27T22:42:22.326Z,8.32
2022-08-27T22:45:25.429Z,7.95
2022-08-27T22:48:27.759Z,8.98
2022-08-27T22:51:29.999Z,8.50
2022-08-27T22:54:32.107Z,7.38
2022-08-27T22:57:34.929Z,8.55
2022-08-27T23:00:38.076Z,7.28
2022-08-27T23:03:40.254Z,7.30
2022-08-27T23:06:42.354Z,7.28
2022-08-27T23:09:44.536Z,7.30
2022-08-27T23:12:47.870Z,8.00
2022-08-27T23:15:50.108Z,7.50
2022-08-27T23:18:52.007Z,7.57
2022-08-27T23:21:54.567Z,7.22
2022-08-27T23:25:15.232Z,7.20
2022-08-27T23:28:17.632Z,7.75
2022-08-27T23:31:20.061Z,7.80
2022-08-27T23:34:22.091Z,8.60
2022-08-27T23:37:24.833Z,6.85
2022-08-27T23:40:26.909Z,7.35
2022-08-27T23:43:30.306Z,6.80
2022-08-27T23:46:32.362Z,7.82
2022-08-27T23:49:34.328Z,9.82
2022-08-27T23:52:37.307Z,8.02
2022-08-27T23:55:40.453Z,6.85
